Time;durP1;ratioP1;P1;durP2;ratioP2;P2;SDS_P1;SDS_P2;PMS_P1;PMS_P2;Temp;Humidity;BMP_temperature;BMP_pressure;BME280_temperature;BME280_humidity;BME280_pressure;Samples;Min_cycle;Max_cycle;Signal;HPM_P1;HPM_P2
2023/03/11 00:01:30;;;;;;;97.87;60.03;;;11.70;99.90;;;;;;4591516;19;20031;-27
2023/03/11 00:03:04;;;;;;;91.23;60.77;;;11.70;99.90;;;;;;4589791;19;20457;-27
2023/03/11 00:04:35;;;;;;;92.83;59.23;;;11.80;99.90;;;;;;4591301;19;20429;-31
2023/03/11 00:06:06;;;;;;;86.85;59.80;;;11.80;99.90;;;;;;4590212;19;20845;-28
2023/03/11 00:07:38;;;;;;;89.28;58.70;;;11.70;99.90;;;;;;4589920;19;20019;-27
2023/03/11 00:09:10;;;;;;;87.03;60.73;;;11.70;99.90;;;;;;4590018;19;20007;-30
2023/03/11 00:10:44;;;;;;;88.47;55.90;;;11.70;99.90;;;;;;4590575;19;20467;-28
2023/03/11 00:12:15;;;;;;;86.10;56.43;;;11.80;99.90;;;;;;4590997;19;20425;-26
2023/03/11 00:13:47;;;;;;;;;;;11.70;99.90;;;;;;4592013;19;20545;-24
2023/03/11 00:15:19;;;;;;;85.77;53.10;;;11.70;99.90;;;;;;4590996;19;20331;-27
2023/03/11 00:16:51;;;;;;;80.00;52.17;;;11.80;99.90;;;;;;4591033;19;20429;-26
2023/03/11 00:18:25;;;;;;;84.32;52.97;;;11.70;99.90;;;;;;4588287;19;20417;-27
2023/03/11 00:19:57;;;;;;;78.93;51.90;;;11.70;99.90;;;;;;4590127;19;20014;-28
2023/03/11 00:21:29;;;;;;;77.95;52.08;;;11.80;99.90;;;;;;4590823;19;20484;-27
2023/03/11 00:23:00;;;;;;;80.90;52.17;;;11.80;99.90;;;;;;4589807;19;20011;-26
2023/03/11 00:24:32;;;;;;;77.65;51.47;;;11.80;99.90;;;;;;4590738;19;20483;-28
2023/03/11 00:26:04;;;;;;;77.17;51.13;;;11.80;99.90;;;;;;4590599;19;20018;-26
2023/03/11 00:27:36;;;;;;;86.72;53.10;;;11.80;99.90;;;;;;4591275;19;20550;-25
2023/03/11 00:29:09;;;;;;;79.27;52.43;;;11.80;99.90;;;;;;4590757;19;20011;-26
2023/03/11 00:30:40;;;;;;;77.50;51.17;;;11.80;99.90;;;;;;4590928;19;20515;-28
2023/03/11 00:32:11;;;;;;;;;;;11.80;99.90;;;;;;4589182;19;20488;-27
2023/03/11 00:33:44;;;;;;;86.47;52.97;;;11.90;99.90;;;;;;4589599;19;19919;-27
2023/03/11 00:35:18;;;;;;;82.13;49.47;;;11.80;99.90;;;;;;4590984;19;20007;-27
2023/03/11 00:36:50;;;;;;;74.97;47.93;;;11.90;99.90;;;;;;4589977;19;20811;-26
2023/03/11 00:38:21;;;;;;;76.18;48.45;;;11.80;99.90;;;;;;4588826;19;20477;-29
2023/03/11 00:39:53;;;;;;;75.93;48.20;;;11.80;99.90;;;;;;4589308;19;20010;-27
2023/03/11 00:41:25;;;;;;;72.80;48.85;;;11.80;99.90;;;;;;4590405;19;20441;-26
2023/03/11 00:42:57;;;;;;;69.65;46.70;;;11.80;99.90;;;;;;4589289;19;20033;-30
2023/03/11 00:44:28;;;;;;;76.03;50.65;;;11.80;99.90;;;;;;4590504;19;20030;-25
2023/03/11 00:46:00;;;;;;;74.60;49.57;;;11.80;99.90;;;;;;4590205;19;20074;-28
2023/03/11 00:47:33;;;;;;;70.43;48.43;;;11.80;99.90;;;;;;4590305;19;20512;-26
2023/03/11 00:49:06;;;;;;;70.23;45.63;;;11.70;99.90;;;;;;4590260;19;20421;-24
2023/03/11 00:50:39;;;;;;;75.47;48.43;;;11.70;99.90;;;;;;4587646;19;20429;-26
2023/03/11 00:52:12;;;;;;;66.47;45.93;;;11.60;99.90;;;;;;4589457;19;20429;-28
2023/03/11 00:53:44;;;;;;;74.03;48.13;;;11.60;99.90;;;;;;4590056;19;20474;-26
2023/03/11 00:55:20;;;;;;;66.33;44.10;;;11.60;99.90;;;;;;4590200;19;20936;-26
2023/03/11 00:56:51;;;;;;;69.20;44.50;;;11.60;99.90;;;;;;4589952;19;20487;-25
2023/03/11 00:58:26;;;;;;;62.67;43.45;;;11.60;99.90;;;;;;4590198;19;21067;-26
2023/03/11 00:59:58;;;;;;;70.00;43.47;;;11.60;99.90;;;;;;4589203;19;20018;-27
2023/03/11 01:01:30;;;;;;;62.83;41.03;;;11.60;99.90;;;;;;4589742;19;20425;-28
2023/03/11 01:03:02;;;;;;;62.60;40.60;;;11.60;99.90;;;;;;4587699;19;21259;-26
2023/03/11 01:04:35;;;;;;;59.13;39.43;;;11.60;99.90;;;;;;4589879;19;20792;-26
2023/03/11 01:06:06;;;;;;;56.60;38.67;;;11.60;99.90;;;;;;4590026;19;20461;-27
2023/03/11 01:07:37;;;;;;;58.33;39.60;;;11.70;99.90;;;;;;4588931;19;20014;-27
2023/03/11 01:09:09;;;;;;;64.68;40.17;;;11.70;99.90;;;;;;4589418;19;20010;-30
2023/03/11 01:10:40;;;;;;;63.40;40.88;;;11.70;99.90;;;;;;4589874;19;20350;-25
2023/03/11 01:12:14;;;;;;;54.40;37.57;;;11.70;99.90;;;;;;4589998;19;20010;-24
2023/03/11 01:13:46;;;;;;;56.50;36.35;;;11.70;99.90;;;;;;4589844;19;20437;-25
2023/03/11 01:15:20;;;;;;;57.30;37.60;;;11.60;99.90;;;;;;4589878;19;20062;-26
2023/03/11 01:16:52;;;;;;;57.03;37.83;;;11.60;99.90;;;;;;4589819;19;20006;-26
2023/03/11 01:18:25;;;;;;;60.60;38.27;;;11.70;99.90;;;;;;4589654;19;20463;-27
2023/03/11 01:19:57;;;;;;;55.30;36.80;;;11.60;99.90;;;;;;4589545;19;20972;-29
2023/03/11 01:21:29;;;;;;;58.38;38.13;;;11.60;99.90;;;;;;4589464;19;20764;-26
2023/03/11 01:23:00;;;;;;;56.33;36.50;;;11.60;99.90;;;;;;4587643;19;20464;-28
2023/03/11 01:24:35;;;;;;;55.67;35.93;;;11.60;99.90;;;;;;4589561;19;20007;-25
2023/03/11 01:26:08;;;;;;;57.03;37.43;;;11.60;99.90;;;;;;4589711;19;21128;-29
2023/03/11 01:27:39;;;;;;;56.53;38.13;;;11.60;99.90;;;;;;4591479;19;20821;-25
2023/03/11 01:29:12;;;;;;;57.53;37.67;;;11.60;99.90;;;;;;4588773;19;20025;-31
2023/03/11 01:30:48;;;;;;;60.57;39.67;;;11.60;99.90;;;;;;4589369;19;20433;-27
2023/03/11 01:32:19;;;;;;;62.80;40.33;;;11.70;99.90;;;;;;4589606;19;20454;-27
2023/03/11 01:33:51;;;;;;;59.13;36.33;;;11.70;99.90;;;;;;4589069;19;20007;-27
2023/03/11 01:35:24;;;;;;;52.50;34.40;;;11.70;99.90;;;;;;4589601;19;20417;-27
2023/03/11 01:36:57;;;;;;;57.70;37.07;;;11.70;99.90;;;;;;4588155;19;20007;-27
2023/03/11 01:38:28;;;;;;;56.08;34.83;;;11.70;99.90;;;;;;4589462;19;21050;-27
2023/03/11 01:40:00;;;;;;;52.37;33.83;;;11.70;99.90;;;;;;4589594;19;20028;-26
2023/03/11 01:41:33;;;;;;;56.00;37.73;;;11.60;99.90;;;;;;4589695;19;20437;-27
2023/03/11 01:43:05;;;;;;;57.13;35.65;;;11.70;99.90;;;;;;4588370;19;20476;-30
2023/03/11 01:44:37;;;;;;;51.67;33.67;;;11.60;99.90;;;;;;4589205;19;20014;-27
2023/03/11 01:46:30;;;;;;;58.17;36.05;;;11.60;99.90;;;;;;4589270;19;20865;-26
2023/03/11 01:48:01;;;;;;;53.17;33.33;;;11.60;99.90;;;;;;4588258;19;20352;-25
2023/03/11 01:49:32;;;;;;;60.22;36.28;;;11.60;99.90;;;;;;4588137;19;20436;-27
2023/03/11 01:51:05;;;;;;;57.83;36.40;;;11.60;99.90;;;;;;4588861;19;20034;-27
2023/03/11 01:52:38;;;;;;;57.17;34.77;;;11.60;99.90;;;;;;4588130;19;20441;-25
2023/03/11 01:54:15;;;;;;;57.25;35.78;;;11.70;99.90;;;;;;4588335;19;21077;-27
2023/03/11 01:55:48;;;;;;;57.57;36.50;;;11.70;99.90;;;;;;4588117;19;20010;-26
2023/03/11 01:57:19;;;;;;;59.38;35.67;;;11.70;99.90;;;;;;4588090;19;20432;-27
2023/03/11 01:58:51;;;;;;;54.55;32.25;;;11.60;99.90;;;;;;4587977;19;20006;-26
2023/03/11 02:00:23;;;;;;;51.60;30.90;;;11.60;99.90;;;;;;4587789;19;20022;-27
2023/03/11 02:02:09;;;;;;;53.10;31.50;;;11.60;99.90;;;;;;4589351;19;20433;-26
2023/03/11 02:03:43;;;;;;;53.23;30.90;;;11.50;99.90;;;;;;4592566;19;20433;-27
2023/03/11 02:05:15;;;;;;;49.57;31.27;;;11.60;99.90;;;;;;4593557;19;20492;-27
2023/03/11 02:06:48;;;;;;;52.83;31.73;;;11.60;99.90;;;;;;4593986;19;20429;-27
2023/03/11 02:08:21;;;;;;;47.80;29.93;;;11.60;99.90;;;;;;4593348;19;20441;-26
2023/03/11 02:09:54;;;;;;;47.00;31.10;;;11.50;99.90;;;;;;4593442;19;20495;-27
2023/03/11 02:11:28;;;;;;;47.13;29.77;;;11.50;99.90;;;;;;4593682;19;20783;-27
2023/03/11 02:13:01;;;;;;;47.25;30.67;;;11.50;99.90;;;;;;4593602;19;20476;-27
2023/03/11 02:14:32;;;;;;;50.37;31.00;;;11.50;99.90;;;;;;4592437;19;20018;-29
2023/03/11 02:16:04;;;;;;;46.28;29.90;;;11.50;99.90;;;;;;4592456;19;21087;-25
2023/03/11 02:17:37;;;;;;;48.53;31.60;;;11.40;99.90;;;;;;4593253;19;20368;-27
2023/03/11 02:19:16;;;;;;;;;;;11.50;99.90;;;;;;4593209;19;20440;-25
2023/03/11 02:21:10;;;;;;;49.03;30.10;;;11.60;99.90;;;;;;4592167;19;19952;-30
2023/03/11 02:22:44;;;;;;;49.47;29.83;;;11.60;99.90;;;;;;4592205;19;20474;-30
2023/03/11 02:24:29;;;;;;;48.28;29.17;;;11.70;99.90;;;;;;4592038;19;20468;-25
2023/03/11 02:26:19;;;;;;;52.83;31.03;;;11.60;99.90;;;;;;4592693;19;20764;-27
2023/03/11 02:27:52;;;;;;;51.83;31.73;;;11.70;99.90;;;;;;4592416;19;20805;-30
2023/03/11 02:29:25;;;;;;;48.90;31.17;;;11.60;99.90;;;;;;4591943;19;20468;-27
2023/03/11 02:30:58;;;;;;;50.63;30.33;;;11.60;99.90;;;;;;4592071;19;20441;-30
2023/03/11 02:32:29;;;;;;;47.33;30.00;;;11.50;99.90;;;;;;4592780;19;20451;-26
2023/03/11 02:34:01;;;;;;;49.92;32.42;;;11.50;99.90;;;;;;4591605;19;20018;-31
2023/03/11 02:35:32;;;;;;;49.88;31.13;;;11.50;99.90;;;;;;4591660;19;20007;-26
2023/03/11 02:37:05;;;;;;;50.78;30.80;;;11.50;99.90;;;;;;4592784;19;20011;-28
2023/03/11 02:38:38;;;;;;;48.73;30.90;;;11.50;99.90;;;;;;4593170;19;20353;-27
2023/03/11 02:40:21;;;;;;;47.50;31.13;;;11.40;99.90;;;;;;4593201;19;20429;-28
2023/03/11 02:41:52;;;;;;;48.90;28.93;;;11.40;99.90;;;;;;4592804;19;20452;-27
2023/03/11 02:43:42;;;;;;;51.50;31.52;;;11.40;99.90;;;;;;4592567;19;20432;-26
2023/03/11 02:45:15;;;;;;;50.00;30.67;;;11.30;99.90;;;;;;4591767;19;20334;-29
2023/03/11 02:46:47;;;;;;;46.87;28.33;;;11.20;99.90;;;;;;4591482;19;20445;-26
2023/03/11 02:48:20;;;;;;;51.00;29.67;;;11.30;99.90;;;;;;4592755;19;20437;-25
2023/03/11 02:49:52;;;;;;;48.55;28.60;;;11.30;99.90;;;;;;4591550;19;21115;-27
2023/03/11 02:51:24;;;;;;;46.47;28.17;;;11.30;99.90;;;;;;4591739;19;20010;-26
2023/03/11 02:52:56;;;;;;;46.17;28.20;;;11.30;99.90;;;;;;4592180;19;20811;-26
2023/03/11 02:54:27;;;;;;;48.83;29.25;;;11.30;99.90;;;;;;4592687;19;20003;-26
2023/03/11 02:55:58;;;;;;;43.95;27.05;;;11.30;99.90;;;;;;4592659;19;20494;-26
2023/03/11 02:57:30;;;;;;;45.30;28.20;;;11.30;99.90;;;;;;4592610;19;20113;-27
2023/03/11 02:59:03;;;;;;;48.63;29.83;;;11.30;99.90;;;;;;4592922;19;20002;-25
2023/03/11 03:00:34;;;;;;;44.30;27.88;;;11.30;99.90;;;;;;4592117;19;20461;-25
2023/03/11 03:02:06;;;;;;;43.58;28.90;;;11.30;99.90;;;;;;4592142;19;20026;-26
2023/03/11 03:03:37;;;;;;;43.72;27.38;;;11.30;99.90;;;;;;4592801;19;20015;-27
2023/03/11 03:05:10;;;;;;;46.67;29.87;;;11.30;99.90;;;;;;4592731;19;20028;-25
2023/03/11 03:06:43;;;;;;;46.80;28.97;;;11.30;99.90;;;;;;4592438;19;20467;-28
2023/03/11 03:08:14;;;;;;;43.08;25.65;;;11.30;99.90;;;;;;4591842;19;20452;-27
2023/03/11 03:09:47;;;;;;;42.73;28.07;;;11.30;99.90;;;;;;4592401;19;20006;-29
2023/03/11 03:11:19;;;;;;;40.28;25.58;;;11.30;99.90;;;;;;4591327;19;20819;-27
2023/03/11 03:12:51;;;;;;;42.67;26.23;;;11.30;99.90;;;;;;4591795;19;20573;-26
2023/03/11 03:14:22;;;;;;;39.53;25.23;;;11.30;99.90;;;;;;4590975;19;20019;-28
2023/03/11 03:15:55;;;;;;;45.00;27.10;;;11.30;99.90;;;;;;4592457;19;20082;-26
2023/03/11 03:17:27;;;;;;;41.77;25.93;;;11.30;99.90;;;;;;4592182;19;20433;-25
2023/03/11 03:18:58;;;;;;;36.30;23.58;;;11.30;99.90;;;;;;4592173;19;20452;-30
2023/03/11 03:20:31;;;;;;;35.43;22.70;;;11.30;99.90;;;;;;4592148;19;20018;-27
2023/03/11 03:22:02;;;;;;;35.03;23.48;;;11.30;99.90;;;;;;4592185;19;20508;-29
2023/03/11 03:23:34;;;;;;;38.53;23.77;;;11.30;99.90;;;;;;4592087;19;20010;-25
2023/03/11 03:25:06;;;;;;;33.90;21.17;;;11.40;99.90;;;;;;4592019;19;20018;-31
2023/03/11 03:26:39;;;;;;;35.73;21.23;;;11.30;99.90;;;;;;4591926;19;20563;-26
2023/03/11 03:28:11;;;;;;;;;;;11.40;99.90;;;;;;4593247;19;20441;-26
2023/03/11 03:29:42;;;;;;;37.35;21.73;;;11.40;99.90;;;;;;4591895;19;19966;-26
2023/03/11 03:31:14;;;;;;;36.33;23.02;;;11.40;99.90;;;;;;4591854;19;20035;-25
2023/03/11 03:32:46;;;;;;;30.60;21.03;;;11.40;99.90;;;;;;4591725;19;20026;-26
2023/03/11 03:34:17;;;;;;;29.90;20.80;;;11.40;99.90;;;;;;4591014;19;20524;-28
2023/03/11 03:35:48;;;;;;;34.70;22.05;;;11.40;99.90;;;;;;4590976;19;20015;-25
2023/03/11 03:37:21;;;;;;;33.73;21.67;;;11.40;99.90;;;;;;4591623;19;20487;-27
2023/03/11 03:38:54;;;;;;;32.03;19.25;;;11.40;99.90;;;;;;4591767;19;20433;-27
2023/03/11 03:40:26;;;;;;;27.40;18.07;;;11.40;99.90;;;;;;4592064;19;20017;-25
2023/03/11 03:41:57;;;;;;;28.17;18.65;;;11.40;99.90;;;;;;4591388;19;20819;-26
2023/03/11 03:43:29;;;;;;;29.60;18.73;;;11.40;99.90;;;;;;4591668;19;20379;-24
2023/03/11 03:45:00;;;;;;;27.63;17.67;;;11.30;99.90;;;;;;4592640;19;20408;-28
2023/03/11 03:46:31;;;;;;;25.02;16.75;;;11.40;99.90;;;;;;4594333;19;20585;-28
2023/03/11 03:48:03;;;;;;;25.77;16.52;;;11.40;99.90;;;;;;4593736;19;20021;-27
2023/03/11 03:49:36;;;;;;;23.73;14.60;;;11.40;99.90;;;;;;4594067;19;20074;-28
2023/03/11 03:51:10;;;;;;;21.93;14.77;;;11.40;99.90;;;;;;4593689;19;21056;-27
2023/03/11 03:52:41;;;;;;;22.07;14.80;;;11.40;99.90;;;;;;4593806;19;21067;-27
2023/03/11 03:54:14;;;;;;;21.20;14.13;;;11.40;99.90;;;;;;4593624;19;20469;-26
2023/03/11 03:55:45;;;;;;;21.55;14.52;;;11.40;99.90;;;;;;4592621;19;21067;-27
2023/03/11 03:57:17;;;;;;;23.70;15.88;;;11.30;99.90;;;;;;4593546;19;20504;-31
2023/03/11 03:58:49;;;;;;;23.40;15.97;;;11.40;99.90;;;;;;4593154;19;20011;-28
2023/03/11 04:00:20;;;;;;;21.95;15.55;;;11.40;99.90;;;;;;4592752;19;20579;-28
2023/03/11 04:01:52;;;;;;;;;;;11.30;99.90;;;;;;4594729;19;20019;-27
2023/03/11 04:03:24;;;;;;;22.50;14.97;;;11.30;99.90;;;;;;4593808;19;19926;-28
2023/03/11 04:04:56;;;;;;;19.40;13.87;;;11.30;99.90;;;;;;4590836;19;20469;-25
2023/03/11 04:06:28;;;;;;;16.55;11.80;;;11.30;99.90;;;;;;4592125;19;20499;-26
2023/03/11 04:07:59;;;;;;;16.77;11.57;;;11.30;99.90;;;;;;4591092;19;20011;-30
2023/03/11 04:09:32;;;;;;;15.47;11.27;;;11.30;99.90;;;;;;4591063;19;20538;-25
2023/03/11 04:11:04;;;;;;;14.77;12.30;;;11.30;99.90;;;;;;4592859;19;20487;-26
2023/03/11 04:12:35;;;;;;;16.55;11.98;;;11.30;99.90;;;;;;4593481;19;20456;-27
2023/03/11 04:14:07;;;;;;;19.52;13.23;;;11.20;99.90;;;;;;4593290;19;20599;-27
2023/03/11 04:15:38;;;;;;;15.10;11.98;;;11.20;99.90;;;;;;4593122;19;20082;-25
2023/03/11 04:17:13;;;;;;;17.05;13.25;;;11.10;99.90;;;;;;4590852;19;20014;-25
2023/03/11 04:18:45;;;;;;;16.53;12.47;;;11.10;99.90;;;;;;4589456;19;20018;-28
2023/03/11 04:20:18;;;;;;;15.63;11.83;;;11.10;99.90;;;;;;4590249;19;20429;-27
2023/03/11 04:21:51;;;;;;;14.43;11.93;;;11.00;99.90;;;;;;4590614;19;20421;-28
2023/03/11 04:23:24;;;;;;;14.07;10.83;;;11.10;99.90;;;;;;4589516;19;20441;-28
2023/03/11 04:24:55;;;;;;;14.55;11.15;;;11.00;99.90;;;;;;4589958;19;20524;-27
2023/03/11 04:26:27;;;;;;;13.20;10.50;;;11.00;99.90;;;;;;4589393;19;20045;-33
2023/03/11 04:28:00;;;;;;;12.97;10.17;;;11.00;99.90;;;;;;4590388;19;20708;-26
2023/03/11 04:29:32;;;;;;;11.60;9.55;;;11.00;99.90;;;;;;4588259;19;20452;-28
2023/03/11 04:31:03;;;;;;;11.35;9.52;;;10.90;99.90;;;;;;4590144;19;20010;-28
2023/03/11 04:32:36;;;;;;;12.57;9.50;;;11.00;99.90;;;;;;4589813;19;20015;-24
2023/03/11 04:34:07;;;;;;;11.13;9.63;;;10.90;99.90;;;;;;4589525;19;20531;-30
2023/03/11 04:35:40;;;;;;;11.90;10.13;;;10.90;99.90;;;;;;4590476;19;20503;-28
2023/03/11 04:37:11;;;;;;;11.10;9.18;;;11.00;99.90;;;;;;4590455;19;20467;-24
2023/03/11 04:38:45;;;;;;;11.07;8.70;;;11.00;99.90;;;;;;4590364;19;20078;-28
2023/03/11 04:40:16;;;;;;;11.10;9.27;;;11.00;99.90;;;;;;4590266;19;20535;-28
2023/03/11 04:41:49;;;;;;;11.10;8.80;;;11.00;99.90;;;;;;4590312;19;20552;-27
2023/03/11 04:43:21;;;;;;;10.10;8.18;;;11.00;99.90;;;;;;4589185;19;21033;-24
2023/03/11 04:44:53;;;;;;;12.32;9.63;;;11.00;99.90;;;;;;4590376;19;20006;-26
2023/03/11 04:46:24;;;;;;;;;;;10.90;99.90;;;;;;4588957;19;20348;-25
2023/03/11 04:47:56;;;;;;;11.03;8.70;;;10.90;99.90;;;;;;4589109;19;20390;-28
2023/03/11 04:49:27;;;;;;;8.88;7.97;;;11.00;99.90;;;;;;4590662;19;20528;-29
2023/03/11 04:50:59;;;;;;;11.63;8.07;;;10.90;99.90;;;;;;4590406;19;20520;-27
2023/03/11 04:52:31;;;;;;;10.50;8.48;;;10.80;99.90;;;;;;4590110;19;20884;-27
2023/03/11 04:54:03;;;;;;;11.43;8.07;;;10.90;99.90;;;;;;4590408;19;20010;-25
2023/03/11 04:55:35;;;;;;;10.98;8.60;;;10.90;99.90;;;;;;4587781;19;20473;-25
2023/03/11 04:57:06;;;;;;;10.73;8.57;;;10.90;99.90;;;;;;4589325;19;20006;-26
2023/03/11 04:58:39;;;;;;;9.77;8.20;;;10.90;99.90;;;;;;4590414;19;20010;-27
2023/03/11 05:00:14;;;;;;;8.63;7.20;;;10.90;99.90;;;;;;4589945;19;21125;-26
2023/03/11 05:01:45;;;;;;;10.07;8.57;;;11.00;99.90;;;;;;4589982;19;20791;-28
2023/03/11 05:03:18;;;;;;;9.73;7.80;;;11.00;99.90;;;;;;4588964;19;20437;-27
2023/03/11 05:04:51;;;;;;;8.30;7.07;;;11.10;99.90;;;;;;4590121;19;21050;-27
2023/03/11 05:06:23;;;;;;;9.82;7.03;;;11.40;99.90;;;;;;4590086;19;20429;-27
2023/03/11 05:07:55;;;;;;;9.67;7.87;;;11.60;99.90;;;;;;4589681;19;20039;-27
2023/03/11 05:09:28;;;;;;;8.77;7.43;;;11.80;99.90;;;;;;4589926;19;20483;-25
2023/03/11 05:11:00;;;;;;;11.20;8.90;;;11.70;99.90;;;;;;4589780;19;21018;-27
2023/03/11 05:12:33;;;;;;;8.80;7.53;;;11.50;99.90;;;;;;4589793;19;20425;-29
2023/03/11 05:14:04;;;;;;;10.18;8.40;;;11.40;99.90;;;;;;4589684;19;21096;-30
2023/03/11 05:15:36;;;;;;;11.75;8.40;;;11.30;99.90;;;;;;4590800;19;20014;-25
2023/03/11 05:17:09;;;;;;;;;;;11.30;99.90;;;;;;4590710;19;20018;-26
2023/03/11 05:18:40;;;;;;;;;;;11.30;99.90;;;;;;4591789;19;19923;-26
2023/03/11 05:20:11;;;;;;;10.67;8.67;;;11.20;99.90;;;;;;4590315;19;19974;-29
2023/03/11 05:21:43;;;;;;;;;;;11.20;99.90;;;;;;4590643;19;20503;-24
2023/03/11 05:23:14;;;;;;;9.70;7.50;;;11.10;99.90;;;;;;4588866;19;19941;-31
2023/03/11 05:24:46;;;;;;;8.27;6.90;;;11.00;99.90;;;;;;4589605;19;20468;-29
2023/03/11 05:26:17;;;;;;;8.73;7.15;;;10.90;99.90;;;;;;4590295;19;20462;-25
2023/03/11 05:27:48;;;;;;;8.60;6.88;;;10.90;99.90;;;;;;4590034;19;20014;-28
2023/03/11 05:29:20;;;;;;;8.93;6.07;;;10.90;99.90;;;;;;4589633;19;20017;-26
2023/03/11 05:30:51;;;;;;;8.32;6.32;;;10.90;99.90;;;;;;4590229;19;20489;-26
2023/03/11 05:32:22;;;;;;;8.93;6.88;;;10.90;99.90;;;;;;4590048;19;20013;-25
2023/03/11 05:33:54;;;;;;;8.15;6.97;;;10.90;99.90;;;;;;4589621;19;20020;-26
2023/03/11 05:35:25;;;;;;;7.70;6.80;;;10.90;99.90;;;;;;4589790;19;20011;-26
2023/03/11 05:36:56;;;;;;;8.80;7.55;;;10.90;99.90;;;;;;4588538;19;20010;-26
2023/03/11 05:38:28;;;;;;;;;;;10.90;99.90;;;;;;4589992;19;20021;-26
2023/03/11 05:39:59;;;;;;;7.47;5.80;;;10.90;99.90;;;;;;4587926;19;19929;-33
2023/03/11 05:41:31;;;;;;;7.47;6.25;;;10.90;99.90;;;;;;4588202;19;20480;-26
2023/03/11 05:43:02;;;;;;;7.97;5.55;;;10.90;99.90;;;;;;4589509;19;20018;-28
2023/03/11 05:44:34;;;;;;;8.10;6.35;;;10.80;99.90;;;;;;4590124;19;20010;-26
2023/03/11 05:46:07;;;;;;;7.37;5.60;;;10.80;99.90;;;;;;4589632;19;20031;-24
2023/03/11 05:47:40;;;;;;;6.90;5.53;;;10.80;99.90;;;;;;4589659;19;20472;-26
2023/03/11 05:49:13;;;;;;;7.57;5.67;;;10.80;99.90;;;;;;4589145;19;20028;-26
2023/03/11 05:50:45;;;;;;;6.15;5.25;;;10.80;99.90;;;;;;4588804;19;20615;-27
2023/03/11 05:52:17;;;;;;;5.27;4.50;;;10.90;99.90;;;;;;4588295;19;20011;-26
2023/03/11 05:53:48;;;;;;;5.40;4.50;;;10.80;99.90;;;;;;4588172;19;20764;-26
2023/03/11 05:55:20;;;;;;;;;;;10.80;99.90;;;;;;4588639;19;20018;-27
2023/03/11 05:56:52;;;;;;;5.32;4.53;;;10.80;99.90;;;;;;4587639;19;19927;-25
2023/03/11 05:58:23;;;;;;;6.22;4.85;;;10.70;99.90;;;;;;4590453;19;20074;-26
2023/03/11 05:59:54;;;;;;;4.95;4.28;;;10.70;99.90;;;;;;4589955;19;20022;-25
2023/03/11 06:01:26;;;;;;;5.80;4.95;;;10.70;99.90;;;;;;4587698;19;20499;-28
2023/03/11 06:02:57;;;;;;;5.72;4.75;;;10.70;99.90;;;;;;4588432;19;20015;-25
2023/03/11 06:04:28;;;;;;;5.97;4.85;;;10.70;99.90;;;;;;4587668;19;20492;-25
2023/03/11 06:05:59;;;;;;;6.18;4.75;;;10.70;99.90;;;;;;4587692;19;20484;-27
2023/03/11 06:07:32;;;;;;;;;;;10.70;99.90;;;;;;4588879;19;20085;-24
2023/03/11 06:09:03;;;;;;;5.20;4.70;;;10.70;99.90;;;;;;4586619;19;19919;-27
2023/03/11 06:10:35;;;;;;;5.82;5.10;;;10.80;99.90;;;;;;4587203;19;20019;-26
2023/03/11 06:12:09;;;;;;;4.63;3.95;;;10.80;99.90;;;;;;4587307;19;20006;-26
2023/03/11 06:13:40;;;;;;;5.30;4.27;;;10.70;99.90;;;;;;4589734;19;20037;-27
2023/03/11 06:15:11;;;;;;;5.40;4.32;;;10.70;99.90;;;;;;4589548;19;20487;-25
2023/03/11 06:16:42;;;;;;;4.22;3.67;;;10.70;99.90;;;;;;4588060;19;20031;-26
2023/03/11 06:18:13;;;;;;;4.68;3.75;;;10.70;99.90;;;;;;4588320;19;20464;-27
2023/03/11 06:19:45;;;;;;;5.78;3.33;;;10.70;99.90;;;;;;4588549;19;20024;-26
2023/03/11 06:21:18;;;;;;;4.97;4.13;;;10.70;99.90;;;;;;4585416;19;20010;-27
2023/03/11 06:22:49;;;;;;;3.80;3.10;;;10.60;99.90;;;;;;4585830;19;20081;-26
2023/03/11 06:24:21;;;;;;;4.03;3.10;;;10.50;99.90;;;;;;4586784;19;20448;-29
2023/03/11 06:26:00;;;;;;;5.10;3.45;;;10.50;99.90;;;;;;4587022;19;20437;-26
2023/03/11 06:27:31;;;;;;;4.43;3.63;;;10.50;99.90;;;;;;4587024;19;20070;-28
2023/03/11 06:29:02;;;;;;;3.80;3.10;;;10.60;99.90;;;;;;4587044;19;20441;-26
2023/03/11 06:30:33;;;;;;;4.22;3.30;;;10.70;99.90;;;;;;4589367;19;20015;-27
2023/03/11 06:32:05;;;;;;;3.90;3.10;;;10.80;99.90;;;;;;4589038;19;20102;-29
2023/03/11 06:33:37;;;;;;;;;;;10.80;99.90;;;;;;4589785;19;20461;-25
2023/03/11 06:35:09;;;;;;;4.63;3.77;;;10.70;99.90;;;;;;4585838;19;19926;-27
2023/03/11 06:36:40;;;;;;;4.25;3.85;;;10.70;99.90;;;;;;4587595;19;20495;-28
2023/03/11 06:38:11;;;;;;;4.38;3.65;;;10.60;99.90;;;;;;4587327;19;20023;-26
2023/03/11 06:39:42;;;;;;;4.80;3.33;;;10.60;99.90;;;;;;4588672;19;20010;-25
2023/03/11 06:41:14;;;;;;;4.00;3.55;;;10.60;99.90;;;;;;4588137;19;20384;-24
2023/03/11 06:42:49;;;;;;;4.27;3.80;;;10.50;99.90;;;;;;4587687;19;20098;-27
2023/03/11 06:44:20;;;;;;;3.90;3.40;;;10.50;99.90;;;;;;4587997;19;20433;-28
2023/03/11 06:45:51;;;;;;;5.20;4.05;;;10.60;99.90;;;;;;4587601;19;20437;-23
2023/03/11 06:47:23;;;;;;;4.03;3.42;;;10.60;99.90;;;;;;4586519;19;20040;-26
2023/03/11 06:48:54;;;;;;;4.65;3.97;;;10.60;99.90;;;;;;4591321;19;20018;-26
2023/03/11 06:50:25;;;;;;;4.32;3.80;;;10.70;99.90;;;;;;4591490;19;20094;-27
2023/03/11 06:51:56;;;;;;;3.95;3.42;;;10.80;99.90;;;;;;4590248;19;20040;-24
2023/03/11 06:53:29;;;;;;;4.40;3.90;;;10.80;99.90;;;;;;4590424;19;20037;-25
2023/03/11 06:55:02;;;;;;;4.28;3.53;;;10.80;99.90;;;;;;4591061;19;20473;-25
2023/03/11 06:56:34;;;;;;;5.87;5.27;;;10.70;99.90;;;;;;4590414;19;20037;-28
2023/03/11 06:58:06;;;;;;;4.75;4.20;;;10.70;99.90;;;;;;4590280;19;20449;-26
2023/03/11 06:59:38;;;;;;;8.05;6.88;;;10.60;99.90;;;;;;4590239;19;20428;-26
2023/03/11 07:01:13;;;;;;;6.33;5.20;;;10.50;99.90;;;;;;4588870;19;20035;-28
2023/03/11 07:02:44;;;;;;;6.90;6.20;;;10.40;99.90;;;;;;4589768;19;20471;-27
2023/03/11 07:04:16;;;;;;;5.40;4.60;;;10.50;99.90;;;;;;4589830;19;20452;-24
2023/03/11 07:05:50;;;;;;;6.38;5.55;;;10.50;99.90;;;;;;4588680;19;20507;-28
2023/03/11 07:07:21;;;;;;;7.27;5.90;;;10.50;99.90;;;;;;4589488;19;20468;-31
2023/03/11 07:08:53;;;;;;;6.00;5.50;;;10.30;99.90;;;;;;4590250;19;20524;-24
2023/03/11 07:10:25;;;;;;;7.63;6.85;;;10.40;99.90;;;;;;4590075;19;20441;-24
2023/03/11 07:11:56;;;;;;;9.45;8.55;;;10.40;99.90;;;;;;4589915;19;20017;-27
2023/03/11 07:13:28;;;;;;;8.23;7.43;;;10.50;99.90;;;;;;4592055;19;20042;-26
2023/03/11 07:15:00;;;;;;;6.22;5.45;;;10.50;99.90;;;;;;4591904;19;21135;-23
2023/03/11 07:16:31;;;;;;;6.82;6.13;;;10.50;99.90;;;;;;4591799;19;20027;-28
2023/03/11 07:18:03;;;;;;;8.10;6.85;;;10.50;99.90;;;;;;4589922;19;20018;-25
2023/03/11 07:19:34;;;;;;;8.90;7.30;;;10.40;99.90;;;;;;4590249;19;20066;-24
2023/03/11 07:21:06;;;;;;;7.50;6.80;;;10.50;99.90;;;;;;4591604;19;20017;-25
2023/03/11 07:22:37;;;;;;;7.67;6.93;;;10.50;99.90;;;;;;4590974;19;20439;-27
2023/03/11 07:24:10;;;;;;;7.05;6.35;;;10.50;99.90;;;;;;4591963;19;20509;-25
2023/03/11 07:25:47;;;;;;;10.43;9.43;;;10.60;99.90;;;;;;4592913;19;20043;-25
2023/03/11 07:27:19;;;;;;;24.63;19.93;;;10.60;99.90;;;;;;4593745;19;20480;-28
2023/03/11 07:28:53;;;;;;;36.57;26.20;;;10.70;99.90;;;;;;4594265;19;20461;-25
2023/03/11 07:30:25;;;;;;;69.37;50.50;;;10.70;99.90;;;;;;4591584;19;20476;-25
2023/03/11 07:31:56;;;;;;;39.47;29.27;;;10.70;99.90;;;;;;4591790;19;21071;-27
2023/03/11 07:33:28;;;;;;;54.80;42.13;;;10.80;99.90;;;;;;4591280;19;20492;-26
2023/03/11 07:35:00;;;;;;;21.43;16.97;;;10.80;99.90;;;;;;4592649;19;20014;-27
2023/03/11 07:36:33;;;;;;;19.93;17.93;;;10.60;99.90;;;;;;4594270;19;20560;-32
2023/03/11 07:38:05;;;;;;;13.85;12.45;;;10.50;99.90;;;;;;4592085;19;20452;-27
2023/03/11 07:39:36;;;;;;;8.35;7.50;;;10.40;99.90;;;;;;4591455;19;20011;-27
2023/03/11 07:41:10;;;;;;;8.93;8.03;;;10.20;99.90;;;;;;4591666;19;20022;-27
2023/03/11 07:42:42;;;;;;;7.23;5.93;;;10.20;99.90;;;;;;4590885;19;20458;-26
2023/03/11 07:44:14;;;;;;;8.40;6.15;;;10.30;99.90;;;;;;4591582;19;20536;-24
2023/03/11 07:45:46;;;;;;;7.53;6.20;;;10.30;99.90;;;;;;4591596;19;20029;-25
2023/03/11 07:47:18;;;;;;;;;;;10.30;99.90;;;;;;4592607;19;20449;-25
2023/03/11 07:48:49;;;;;;;6.57;5.50;;;10.20;99.90;;;;;;4591482;19;19919;-27
2023/03/11 07:50:21;;;;;;;7.28;5.90;;;10.10;99.90;;;;;;4591032;19;20421;-26
2023/03/11 07:51:55;;;;;;;6.70;5.53;;;10.20;99.90;;;;;;4591156;19;20018;-25
2023/03/11 07:53:26;;;;;;;6.90;5.27;;;10.30;99.90;;;;;;4591561;19;20457;-25
2023/03/11 07:54:59;;;;;;;6.93;6.20;;;10.30;99.90;;;;;;4591349;19;20429;-25
2023/03/11 07:56:33;;;;;;;7.60;5.70;;;10.30;99.90;;;;;;4591467;19;21013;-27